Create Tblcommutelog Verified Points Advance Search
| # | Trip ID | Id Commuter | Trip Date | Trip Num | Current Lat | Current Lng | Delta Distance | Current Time | Activity | Activity Confidence | Current Speed | |
|---|---|---|---|---|---|---|---|---|---|---|---|---|
| 70021 | 250909_766519_16500126_0719 | 766519 | (not set) | (not set) | 39.117434769926 | -77.162745150884 | 0 | 2025-09-09 07:19:37 | unknown | 100 | 10.308725312257 | |
| 70022 | 250909_788395_16500126_0622 | 788395 | (not set) | (not set) | 38.911997849185 | -76.99974406023 | 21.7924 | 2025-09-09 07:19:38 | in_vehicle | 100 | 7.975180380341 | |
| 70023 | 250909_766519_16500126_0719 | 766519 | (not set) | (not set) | 39.117242368586 | -77.162601387405 | 0 | 2025-09-09 07:19:38 | unknown | 100 | 10.317666097437 | |
| 70024 | 250909_785331_6438355_0706 | 785331 | (not set) | (not set) | 38.93247751301 | -77.26004530899 | 7.1631 | 2025-09-09 07:19:39 | in_vehicle | 100 | 10.5545969047 | |
| 70025 | 250909_785674_6441454_0701 | 785674 | (not set) | (not set) | 39.260162859492 | -77.308765240211 | 9.8763 | 2025-09-09 07:19:39 | in_vehicle | 100 | 8.4535123874579 | |
| 70026 | 250909_785674_6441454_0701 | 785674 | (not set) | (not set) | 39.260162859492 | -77.308765240211 | 9.8763 | 2025-09-09 07:19:39 | in_vehicle | 100 | 8.4535123874579 | |
| 70027 | 250909_788214_16515442_0714 | 788214 | (not set) | (not set) | 38.899194595831 | -77.18176405052 | 2.5294 | 2025-09-09 07:19:39 | unknown | 100 | 9.8125117347805 | |
| 70028 | 250909_766519_16500126_0719 | 766519 | (not set) | (not set) | 39.117013898053 | -77.162453780495 | 0 | 2025-09-09 07:19:39 | unknown | 100 | 10.55906729729 | |
| 70029 | 250909_766519_16500126_0719 | 766519 | (not set) | (not set) | 39.117013898053 | -77.162453780495 | 0 | 2025-09-09 07:19:39 | unknown | 100 | 10.55906729729 | |
| 70030 | 250909_766519_16500126_0719 | 766519 | (not set) | (not set) | 39.117013898053 | -77.162453780495 | 0 | 2025-09-09 07:19:39 | unknown | 100 | 10.55906729729 | |
| 70031 | 250909_766519_16500126_0719 | 766519 | (not set) | (not set) | 39.117013898053 | -77.162453780495 | 0 | 2025-09-09 07:19:39 | unknown | 100 | 10.55906729729 | |
| 70032 | 250909_766519_16500126_0719 | 766519 | (not set) | (not set) | 39.117013898053 | -77.162453780495 | 0 | 2025-09-09 07:19:39 | unknown | 100 | 10.55906729729 | |
| 70033 | 250909_784104_6438355_0701 | 784104 | (not set) | (not set) | 39.12001231629 | -77.16473713335 | 5.6499 | 2025-09-09 07:19:39 | on_foot | 100 | -0.44703925898772 | |
| 70034 | 250909_784608_16458763_0705 | 784608 | (not set) | (not set) | 38.796521414531 | -77.147752496866 | 6.9949 | 2025-09-09 07:19:40 | in_vehicle | 100 | 13.858217028619 | |
| 70035 | 250909_762844_16460442_0637 | 762844 | (not set) | (not set) | 39.142874313225 | -76.697485475346 | 14.2549 | 2025-09-09 07:19:40 | in_vehicle | 100 | 23.572380126423 | |
| 70036 | 250909_785232_6438355_0650 | 785232 | (not set) | (not set) | 38.878444107999 | -77.153729976797 | 1.8831 | 2025-09-09 07:19:42 | in_vehicle | 100 | 5.172244226488 | |
| 70037 | 250909_785232_6438355_0650 | 785232 | (not set) | (not set) | 38.878444107999 | -77.153729976797 | 1.8831 | 2025-09-09 07:19:42 | in_vehicle | 100 | 5.172244226488 | |
| 70038 | 250909_772581_16430940_0700 | 772581 | (not set) | (not set) | 38.948245507592 | -76.871882792582 | 3.9201 | 2025-09-09 07:19:42 | on_foot | 100 | 0.32633865906104 | |
| 70039 | 250909_758717_16480986_0648 | 758717 | (not set) | (not set) | 39.435462557218 | -76.633637960903 | 31.4236 | 2025-09-09 07:19:42 | in_vehicle | 100 | 7.5594338694824 | |
| 70040 | 250909_764454_16507126_0703 | 764454 | (not set) | (not set) | 38.9791013 | -77.4394922 | 8.3428 | 2025-09-09 07:19:42 | in_vehicle | 100 | 0 |